createdAt,value
2018-07-10T00:00:44.762Z,98758.03
2018-07-10T00:04:29.591Z,98754.72
2018-07-10T00:07:44.308Z,98743.83
2018-07-10T00:11:30.690Z,98742.84
2018-07-10T00:14:01.217Z,98745.48
2018-07-10T00:16:31.991Z,98737.91
2018-07-10T00:19:02.013Z,98739.27
2018-07-10T00:21:32.672Z,98736.03
2018-07-10T00:24:04.032Z,98727.27
2018-07-10T00:26:34.426Z,98726.95
2018-07-10T00:29:05.042Z,98727.91
2018-07-10T00:31:35.130Z,98728.53
2018-07-10T00:34:06.061Z,98734.56
2018-07-10T00:36:36.916Z,98734.81
2018-07-10T00:39:09.884Z,98731.69
2018-07-10T00:41:41.896Z,98738.61
2018-07-10T00:44:12.859Z,98733.29
2018-07-10T00:46:43.442Z,98733.50
2018-07-10T00:49:14.099Z,98734.20
2018-07-10T00:51:44.781Z,98734.97
2018-07-10T00:54:15.699Z,98735.92
2018-07-10T00:56:46.234Z,98731.71
2018-07-10T00:59:17.246Z,98729.52
2018-07-10T01:01:48.985Z,98726.39
2018-07-10T01:04:19.748Z,98731.82
2018-07-10T01:06:50.362Z,98737.81
2018-07-10T01:09:20.992Z,98736.06
2018-07-10T01:11:51.584Z,98738.45
2018-07-10T01:14:22.253Z,98747.21
2018-07-10T01:16:52.727Z,98744.11
2018-07-10T01:19:23.494Z,98741.63
2018-07-10T01:21:55.037Z,98746.42
2018-07-10T01:24:25.737Z,98740.16
2018-07-10T01:26:56.333Z,98732.25
2018-07-10T01:29:31.773Z,98734.61
2018-07-10T01:32:02.491Z,98734.03
2018-07-10T01:34:33.169Z,98727.64
2018-07-10T01:37:04.683Z,98728.96
2018-07-10T01:39:36.015Z,98726.13
2018-07-10T01:42:06.630Z,98728.92
2018-07-10T01:44:37.296Z,98722.91
2018-07-10T01:47:07.833Z,98723.91
2018-07-10T01:49:38.540Z,98722.86
2018-07-10T01:52:10.445Z,98717.59
2018-07-10T01:54:40.992Z,98721.73
2018-07-10T01:57:11.419Z,98719.55
2018-07-10T01:59:42.271Z,98727.45
2018-07-10T02:02:12.680Z,98716.41
2018-07-10T02:04:43.468Z,98715.93
2018-07-10T02:07:14.100Z,98721.13
2018-07-10T02:09:45.484Z,98711.02
2018-07-10T02:12:17.388Z,98712.48
2018-07-10T02:14:47.626Z,98710.86
2018-07-10T02:17:18.342Z,98705.59
2018-07-10T02:19:49.242Z,98700.75
2018-07-10T02:22:19.492Z,98702.07
2018-07-10T02:24:50.913Z,98701.38
2018-07-10T02:27:21.857Z,98697.37
2018-07-10T02:29:52.723Z,98689.88
2018-07-10T02:32:23.646Z,98688.23
2018-07-10T02:34:54.354Z,98690.93
2018-07-10T02:37:25.192Z,98694.34
2018-07-10T02:39:55.828Z,98685.27
2018-07-10T02:42:27.531Z,98684.29
2018-07-10T02:44:58.090Z,98677.25
2018-07-10T02:47:32.130Z,98675.86
2018-07-10T02:50:02.845Z,98677.88
2018-07-10T02:52:41.130Z,98690.24
2018-07-10T02:55:11.862Z,98687.20
2018-07-10T02:57:42.463Z,98683.27
2018-07-10T03:00:13.109Z,98687.91
2018-07-10T03:02:44.815Z,98691.16
2018-07-10T03:05:15.709Z,98690.61
2018-07-10T03:07:46.362Z,98691.42
2018-07-10T03:10:17.044Z,98688.94
2018-07-10T03:12:47.708Z,98691.58
2018-07-10T03:15:18.433Z,98685.08
2018-07-10T03:17:49.401Z,98678.62
2018-07-10T03:20:20.267Z,98681.03
2018-07-10T03:22:51.754Z,98689.48
2018-07-10T03:25:22.543Z,98683.67
2018-07-10T03:27:53.161Z,98683.45
2018-07-10T03:30:24.468Z,98677.13
2018-07-10T03:32:55.150Z,98686.14
2018-07-10T03:35:25.819Z,98698.31
2018-07-10T03:37:56.444Z,98698.14
2018-07-10T03:40:30.424Z,98703.00
2018-07-10T03:43:01.083Z,98706.80
2018-07-10T03:45:31.683Z,98704.71
2018-07-10T03:48:02.301Z,98709.42
2018-07-10T03:50:35.468Z,98707.96
2018-07-10T03:53:06.500Z,98711.65
2018-07-10T03:55:39.993Z,98711.36
2018-07-10T03:58:11.074Z,98710.52
2018-07-10T04:00:41.705Z,98709.42
2018-07-10T04:03:12.457Z,98707.34
2018-07-10T04:05:42.990Z,98707.02
2018-07-10T04:08:14.980Z,98705.07
2018-07-10T04:10:45.643Z,98708.25
2018-07-10T04:13:21.672Z,98710.26
2018-07-10T04:15:59.245Z,98701.45
2018-07-10T04:18:33.165Z,98705.08
2018-07-10T04:21:37.501Z,98700.08
2018-07-10T04:24:17.995Z,98704.17
2018-07-10T04:27:00.342Z,98701.88
2018-07-10T04:29:58.749Z,98713.28
2018-07-10T04:32:30.308Z,98701.62
2018-07-10T04:35:02.480Z,98706.74
2018-07-10T04:37:34.158Z,98708.95
2018-07-10T04:40:06.458Z,98715.41
2018-07-10T04:42:51.845Z,98710.45
2018-07-10T04:45:23.519Z,98718.59
2018-07-10T04:47:57.651Z,98720.73
2018-07-10T04:50:41.424Z,98719.69
2018-07-10T04:53:23.087Z,98716.70
2018-07-10T04:55:54.707Z,98719.46
2018-07-10T04:58:25.477Z,98719.31
2018-07-10T05:01:03.372Z,98719.52
2018-07-10T05:03:35.399Z,98717.59
2018-07-10T05:06:08.763Z,98709.62
2018-07-10T05:08:39.390Z,98715.50
2018-07-10T05:11:10.197Z,98716.72
2018-07-10T05:13:41.059Z,98709.46
2018-07-10T05:16:12.461Z,98708.21
2018-07-10T05:18:43.977Z,98704.66
2018-07-10T05:21:17.265Z,98704.83
2018-07-10T05:23:49.165Z,98701.03
2018-07-10T05:26:19.834Z,98700.23
2018-07-10T05:28:54.596Z,98693.45
2018-07-10T05:31:26.051Z,98694.09
2018-07-10T05:33:57.166Z,98691.08
2018-07-10T05:36:27.474Z,98689.37
2018-07-10T05:39:07.812Z,98693.07
2018-07-10T05:41:45.108Z,98694.52
2018-07-10T05:44:23.954Z,98695.14
2018-07-10T05:47:01.371Z,98705.26
2018-07-10T05:49:39.359Z,98697.45
2018-07-10T05:52:13.434Z,98693.62
2018-07-10T05:54:46.036Z,98692.56
2018-07-10T05:57:17.478Z,98697.03
2018-07-10T05:59:48.265Z,98692.88
2018-07-10T06:02:19.193Z,98687.70
2018-07-10T06:04:50.051Z,98682.34
2018-07-10T06:07:21.478Z,98684.96
2018-07-10T06:09:53.034Z,98683.13
2018-07-10T06:12:26.635Z,98687.30
2018-07-10T06:14:59.652Z,98693.05
2018-07-10T06:17:32.177Z,98691.20
2018-07-10T06:20:03.916Z,98686.44
2018-07-10T06:22:34.117Z,98684.68
2018-07-10T06:25:08.596Z,98681.29
2018-07-10T06:27:47.114Z,98687.06
2018-07-10T06:30:19.190Z,98692.97
2018-07-10T06:33:05.054Z,98697.35
2018-07-10T06:35:55.350Z,98694.95
2018-07-10T06:38:26.270Z,98692.92
2018-07-10T06:40:57.211Z,98695.59
2018-07-10T06:43:45.167Z,98700.24
2018-07-10T06:46:16.672Z,98708.62
2018-07-10T06:48:52.210Z,98704.28
2018-07-10T06:51:24.186Z,98705.41
2018-07-10T06:54:02.232Z,98703.70
2018-07-10T06:56:33.499Z,98709.27
2018-07-10T06:59:04.286Z,98706.08
2018-07-10T07:01:35.214Z,98706.27
2018-07-10T07:04:08.913Z,98709.87
2018-07-10T07:06:39.828Z,98704.80
2018-07-10T07:09:10.687Z,98703.99
2018-07-10T07:11:42.599Z,98705.65
2018-07-10T07:14:13.776Z,98698.73
2018-07-10T07:16:45.215Z,98693.57
2018-07-10T07:19:16.802Z,98693.41
2018-07-10T07:22:22.551Z,98691.50
2018-07-10T07:24:53.624Z,98687.33
2018-07-10T07:27:24.542Z,98688.67
2018-07-10T07:29:58.059Z,98686.30
2018-07-10T07:32:29.460Z,98686.47
2018-07-10T07:35:00.794Z,98689.66
2018-07-10T07:37:34.069Z,98683.63
2018-07-10T07:40:08.426Z,98685.63
2018-07-10T07:42:43.340Z,98690.02
2018-07-10T07:45:18.777Z,98685.44
2018-07-10T07:47:51.524Z,98684.91
2018-07-10T07:50:24.710Z,98687.79
2018-07-10T07:52:55.924Z,98692.60
2018-07-10T07:55:27.503Z,98687.86
2018-07-10T07:57:59.903Z,98693.20
2018-07-10T08:00:30.975Z,98694.09
2018-07-10T08:03:01.935Z,98695.32
2018-07-10T08:05:32.672Z,98696.17
2018-07-10T08:08:03.788Z,98697.50
2018-07-10T08:10:35.578Z,98693.50
2018-07-10T08:13:07.917Z,98692.84
2018-07-10T08:15:39.661Z,98694.55
2018-07-10T08:18:10.766Z,98697.91
2018-07-10T08:20:42.089Z,98699.23
2018-07-10T08:23:12.855Z,98695.08
2018-07-10T08:25:44.439Z,98695.53
2018-07-10T08:28:15.900Z,98696.48
2018-07-10T08:30:46.713Z,98695.83
2018-07-10T08:33:18.329Z,98689.02
2018-07-10T08:35:49.972Z,98680.77
2018-07-10T08:38:36.384Z,98686.22
2018-07-10T08:41:09.532Z,98686.98
2018-07-10T08:43:41.695Z,98691.89
2018-07-10T08:46:13.856Z,98686.41
2018-07-10T08:48:46.656Z,98685.85
2018-07-10T08:51:18.403Z,98690.09
2018-07-10T08:53:51.581Z,98688.14
2018-07-10T08:56:22.514Z,98687.60
2018-07-10T08:58:54.540Z,98686.30
2018-07-10T09:01:28.700Z,98676.26
2018-07-10T09:04:00.653Z,98673.46
2018-07-10T09:06:33.042Z,98678.50
2018-07-10T09:09:06.084Z,98670.94
2018-07-10T09:11:37.778Z,98672.81
2018-07-10T09:14:10.257Z,98666.47
2018-07-10T09:16:41.239Z,98669.93
2018-07-10T09:19:14.898Z,98668.56
2018-07-10T09:22:01.620Z,98671.19
2018-07-10T09:24:34.127Z,98668.41
2018-07-10T09:27:09.597Z,98667.52
2018-07-10T09:29:42.162Z,98666.97
2018-07-10T09:32:13.991Z,98668.47
2018-07-10T09:34:45.290Z,98659.42
2018-07-10T09:37:21.958Z,98658.70
2018-07-10T09:39:56.831Z,98666.19
2018-07-10T09:42:27.669Z,98664.68
2018-07-10T09:44:57.817Z,98665.27
2018-07-10T09:47:28.913Z,98663.00
2018-07-10T09:49:59.807Z,98652.92
2018-07-10T09:52:31.427Z,98649.90
2018-07-10T09:55:02.924Z,98646.28
2018-07-10T09:57:34.282Z,98648.75
2018-07-10T10:00:06.275Z,98643.93
2018-07-10T10:02:37.580Z,98645.34
2018-07-10T10:05:08.397Z,98647.06
2018-07-10T10:07:39.911Z,98636.74
2018-07-10T10:10:12.569Z,98636.37
2018-07-10T10:12:43.230Z,98637.27
2018-07-10T10:15:14.104Z,98635.13
2018-07-10T10:17:45.315Z,98629.83
2018-07-10T10:20:16.958Z,98633.98
2018-07-10T10:22:47.705Z,98627.59
2018-07-10T10:25:19.913Z,98621.78
2018-07-10T10:30:31.158Z,98619.91
2018-07-10T10:33:01.807Z,98615.57
2018-07-10T10:35:33.001Z,98622.66
2018-07-10T10:38:04.430Z,98619.23
2018-07-10T10:40:39.417Z,98613.13
2018-07-10T10:43:12.348Z,98607.80
2018-07-10T10:45:43.741Z,98599.56
2018-07-10T10:48:16.583Z,98601.43
2018-07-10T10:50:52.465Z,98605.44
2018-07-10T10:53:24.231Z,98603.66
2018-07-10T10:55:56.305Z,98594.94
2018-07-10T10:58:27.661Z,98589.98
2018-07-10T11:00:58.478Z,98592.84
2018-07-10T11:03:29.068Z,98585.03
2018-07-10T11:05:59.949Z,98581.01
2018-07-10T11:08:30.580Z,98588.61
2018-07-10T11:11:01.948Z,98583.92
2018-07-10T11:13:33.745Z,98576.69
2018-07-10T11:16:04.605Z,98572.41
2018-07-10T11:18:46.380Z,98574.09
2018-07-10T11:21:33.661Z,98570.61
2018-07-10T11:24:06.127Z,98571.41
2018-07-10T11:47:07.402Z,98547.38
2018-07-10T11:49:38.137Z,98541.24
2018-07-10T11:52:09.280Z,98544.14
2018-07-10T11:54:40.115Z,98545.22
2018-07-10T11:57:10.880Z,98536.98
2018-07-10T11:59:42.334Z,98536.33
2018-07-10T12:02:14.292Z,98529.89
2018-07-10T12:04:45.454Z,98539.88
2018-07-10T12:07:16.251Z,98540.23
2018-07-10T12:10:03.181Z,98535.34
2018-07-10T12:12:35.545Z,98520.71
2018-07-10T12:15:07.156Z,98532.16
2018-07-10T12:17:39.515Z,98527.67
2018-07-10T12:20:10.417Z,98521.02
2018-07-10T12:22:43.503Z,98512.09
2018-07-10T12:25:15.084Z,98523.92
2018-07-10T12:27:46.961Z,98512.52
2018-07-10T12:30:18.823Z,98522.25
2018-07-10T12:32:49.955Z,98517.67
2018-07-10T12:35:21.271Z,98507.41
2018-07-10T12:37:52.960Z,98508.77
2018-07-10T12:40:24.677Z,98504.90
2018-07-10T12:42:55.771Z,98507.05
2018-07-10T12:45:27.857Z,98497.59
2018-07-10T12:48:01.293Z,98504.00
2018-07-10T12:50:32.924Z,98496.13
2018-07-10T12:53:04.578Z,98500.72
2018-07-10T12:55:37.823Z,98496.80
2018-07-10T12:58:08.439Z,98495.08
2018-07-10T13:00:41.103Z,98499.72
2018-07-10T13:03:13.871Z,98504.44
2018-07-10T13:05:50.831Z,98488.88
2018-07-10T13:08:21.735Z,98485.05
2018-07-10T13:10:53.570Z,98482.54
2018-07-10T13:13:25.748Z,98488.70
2018-07-10T13:15:57.762Z,98492.08
2018-07-10T13:18:31.254Z,98493.04
2018-07-10T13:21:01.613Z,98494.21
2018-07-10T13:23:32.879Z,98485.43
2018-07-10T13:26:05.393Z,98490.99
2018-07-10T13:28:36.933Z,98478.66
2018-07-10T13:31:07.564Z,98479.14
2018-07-10T13:33:40.040Z,98484.52
2018-07-10T13:36:15.331Z,98477.95
2018-07-10T13:38:46.147Z,98478.36
2018-07-10T13:41:17.396Z,98473.27
2018-07-10T13:43:48.458Z,98477.23
2018-07-10T13:46:19.824Z,98478.22
2018-07-10T13:48:51.659Z,98481.14
2018-07-10T13:51:22.949Z,98477.41
2018-07-10T13:53:53.998Z,98473.11
2018-07-10T13:56:26.424Z,98477.60
2018-07-10T13:58:57.808Z,98469.71
2018-07-10T14:01:29.148Z,98472.69
2018-07-10T14:04:05.868Z,98468.23
2018-07-10T14:06:39.872Z,98468.50
2018-07-10T14:09:13.159Z,98474.09
2018-07-10T14:11:44.309Z,98466.87
2018-07-10T14:14:16.847Z,98467.38
2018-07-10T14:16:48.298Z,98465.71
2018-07-10T14:19:20.071Z,98469.14
2018-07-10T14:21:52.316Z,98468.16
2018-07-10T14:24:22.984Z,98473.55
2018-07-10T14:26:53.885Z,98466.05
2018-07-10T14:29:24.701Z,98460.36
2018-07-10T14:31:55.726Z,98462.57
2018-07-10T14:34:26.840Z,98452.86
2018-07-10T14:36:57.887Z,98455.77
2018-07-10T14:39:30.683Z,98451.98
2018-07-10T14:42:01.410Z,98453.69
2018-07-10T14:44:31.677Z,98447.77
2018-07-10T14:47:02.964Z,98449.58
2018-07-10T14:49:34.381Z,98441.47
2018-07-10T14:52:05.380Z,98440.57
2018-07-10T14:54:36.191Z,98434.20
2018-07-10T14:57:09.097Z,98447.66
2018-07-10T14:59:40.043Z,98435.34
2018-07-10T15:02:10.786Z,98427.09
2018-07-10T15:04:42.388Z,98428.44
2018-07-10T15:07:13.237Z,98440.54
2018-07-10T15:09:44.330Z,98426.78
2018-07-10T15:12:15.382Z,98429.01
2018-07-10T15:14:47.241Z,98427.22
2018-07-10T15:17:23.591Z,98426.67
2018-07-10T15:19:55.453Z,98423.75
2018-07-10T15:22:26.254Z,98422.30
2018-07-10T15:24:57.125Z,98423.65
2018-07-10T15:27:27.735Z,98420.55
2018-07-10T15:29:59.460Z,98421.80
2018-07-10T15:32:31.997Z,98422.78
2018-07-10T15:35:03.232Z,98428.79
2018-07-10T15:37:34.077Z,98416.98
2018-07-10T15:40:05.431Z,98413.81
2018-07-10T15:42:36.283Z,98410.92
2018-07-10T15:45:07.158Z,98414.13
2018-07-10T15:47:39.269Z,98405.35
2018-07-10T15:50:10.323Z,98405.22
2018-07-10T15:52:41.149Z,98408.09
2018-07-10T15:55:12.132Z,98405.55
2018-07-10T15:57:43.191Z,98404.38
2018-07-10T16:00:13.834Z,98410.16
2018-07-10T16:02:44.504Z,98406.70
2018-07-10T16:05:15.656Z,98400.27
2018-07-10T16:07:48.696Z,98405.08
2018-07-10T16:10:19.436Z,98402.83
2018-07-10T16:12:50.106Z,98399.77
2018-07-10T16:15:21.447Z,98403.03
2018-07-10T16:17:52.549Z,98404.97
2018-07-10T16:20:22.951Z,98400.04
2018-07-10T16:22:54.899Z,98400.05
2018-07-10T16:25:32.046Z,98397.88
2018-07-10T16:28:14.474Z,98393.45
2018-07-10T16:30:48.631Z,98393.70
2018-07-10T16:33:31.897Z,98390.13
2018-07-10T16:36:05.028Z,98381.61
2018-07-10T16:38:36.711Z,98386.63
2018-07-10T16:41:14.380Z,98392.42
2018-07-10T16:43:45.934Z,98400.00
2018-07-10T16:46:23.375Z,98388.61
2018-07-10T16:49:34.209Z,98392.06
2018-07-10T16:52:26.387Z,98396.16
2018-07-10T16:54:57.421Z,98395.89
2018-07-10T16:57:28.398Z,98404.88
2018-07-10T16:59:59.203Z,98408.77
2018-07-10T17:02:30.511Z,98417.52
2018-07-10T17:05:02.821Z,98421.74
2018-07-10T17:07:34.019Z,98416.41
2018-07-10T17:10:04.900Z,98402.83
2018-07-10T17:12:35.722Z,98404.11
2018-07-10T17:15:06.448Z,98405.34
2018-07-10T17:17:36.945Z,98414.91
2018-07-10T17:20:12.146Z,98422.34
2018-07-10T17:22:44.930Z,98419.67
2018-07-10T17:25:16.478Z,98426.95
2018-07-10T17:27:49.785Z,98434.91
2018-07-10T17:30:20.674Z,98424.73
2018-07-10T17:32:51.499Z,98433.95
2018-07-10T17:35:22.486Z,98439.53
2018-07-10T17:37:54.781Z,98442.12
2018-07-10T17:40:26.163Z,98445.39
2018-07-10T17:42:57.041Z,98440.63
2018-07-10T17:45:28.004Z,98446.93
2018-07-10T17:48:00.526Z,98450.16
2018-07-10T17:50:33.098Z,98437.92
2018-07-10T17:53:04.430Z,98446.72
2018-07-10T17:55:36.965Z,98445.31
2018-07-10T17:58:08.518Z,98446.72
2018-07-10T18:00:40.069Z,98449.23
2018-07-10T18:03:11.072Z,98449.92
2018-07-10T18:05:42.465Z,98449.22
2018-07-10T18:08:14.248Z,98452.53
2018-07-10T18:10:47.930Z,98440.56
2018-07-10T18:13:22.931Z,98446.45
2018-07-10T18:15:55.352Z,98444.46
2018-07-10T18:18:26.729Z,98449.01
2018-07-10T18:21:00.091Z,98443.94
2018-07-10T18:23:33.099Z,98452.14
2018-07-10T18:26:06.098Z,98457.34
2018-07-10T18:28:39.721Z,98454.45
2018-07-10T18:31:11.574Z,98458.45
2018-07-10T18:33:43.234Z,98453.92
2018-07-10T18:36:15.579Z,98464.66
2018-07-10T18:38:48.765Z,98463.23
2018-07-10T18:41:21.069Z,98460.73
2018-07-10T18:43:52.120Z,98461.92
2018-07-10T18:46:24.315Z,98466.31
2018-07-10T18:48:56.612Z,98473.72
2018-07-10T18:51:30.126Z,98477.03
2018-07-10T18:54:05.602Z,98478.41
2018-07-10T18:56:38.953Z,98478.47
2018-07-10T18:59:13.905Z,98471.85
2018-07-10T19:02:00.750Z,98478.34
2018-07-10T19:05:09.678Z,98481.11
2018-07-10T19:07:43.752Z,98482.49
2018-07-10T19:10:16.270Z,98486.12
2018-07-10T19:12:49.583Z,98487.25
2018-07-10T19:15:23.816Z,98489.30
2018-07-10T19:17:55.930Z,98492.59
2018-07-10T19:20:30.463Z,98492.41
2018-07-10T19:23:17.482Z,98493.66
2018-07-10T19:25:49.739Z,98501.42
2018-07-10T19:28:22.758Z,98502.88
2018-07-10T19:31:12.483Z,98501.83
2018-07-10T19:33:47.448Z,98509.85
2018-07-10T19:36:19.433Z,98512.42
2018-07-10T19:38:51.560Z,98506.25
2018-07-10T19:41:24.897Z,98519.59
2018-07-10T19:43:58.627Z,98516.63
2018-07-10T19:46:33.135Z,98511.46
2018-07-10T19:49:08.608Z,98516.69
2018-07-10T19:51:43.052Z,98521.84
2018-07-10T19:54:19.369Z,98523.39
2018-07-10T19:56:52.483Z,98528.83
2018-07-10T19:59:24.688Z,98528.35
2018-07-10T20:02:00.330Z,98526.19
2018-07-10T20:04:54.355Z,98532.03
2018-07-10T20:07:30.843Z,98533.38
2018-07-10T20:10:13.341Z,98527.31
2018-07-10T20:13:52.549Z,98531.02
2018-07-10T20:16:40.302Z,98527.19
2018-07-10T20:19:34.717Z,98531.06
2018-07-10T20:24:22.870Z,98530.55
2018-07-10T20:27:08.491Z,98526.42
2018-07-10T20:32:00.484Z,98531.14
2018-07-10T20:34:57.629Z,98528.77
2018-07-10T20:37:32.283Z,98532.06
2018-07-10T20:40:05.382Z,98536.58
2018-07-10T20:42:45.467Z,98537.75
2018-07-10T20:45:17.754Z,98528.50
2018-07-10T20:47:54.559Z,98530.52
2018-07-10T20:51:11.262Z,98528.14
2018-07-10T20:54:28.303Z,98530.36
2018-07-10T20:58:13.609Z,98539.13
2018-07-10T21:01:16.448Z,98533.38
2018-07-10T21:03:53.215Z,98530.58
2018-07-10T21:06:51.813Z,98534.53
2018-07-10T21:09:28.805Z,98536.41
2018-07-10T21:12:16.257Z,98537.14
2018-07-10T21:16:25.211Z,98538.47
2018-07-10T21:20:12.778Z,98543.00
2018-07-10T21:23:00.699Z,98549.06
2018-07-10T21:25:58.607Z,98545.56
2018-07-10T21:28:46.764Z,98543.86
2018-07-10T21:31:42.419Z,98539.78
2018-07-10T21:34:23.224Z,98536.20
2018-07-10T21:37:08.165Z,98545.11
2018-07-10T21:41:54.391Z,98546.39
2018-07-10T21:44:44.588Z,98539.52
2018-07-10T21:48:28.755Z,98535.06
2018-07-10T21:50:59.826Z,98539.62
2018-07-10T21:53:30.866Z,98534.25
2018-07-10T21:56:02.359Z,98537.98
2018-07-10T21:58:33.924Z,98539.19
2018-07-10T22:01:52.185Z,98537.71
2018-07-10T22:04:41.440Z,98537.34
2018-07-10T22:07:15.986Z,98538.48
2018-07-10T22:09:47.136Z,98528.64
2018-07-10T22:12:20.954Z,98529.08
2018-07-10T22:14:51.985Z,98523.17
2018-07-10T22:17:25.878Z,98533.34
2018-07-10T22:19:59.073Z,98530.95
2018-07-10T22:22:33.761Z,98538.94
2018-07-10T22:25:08.579Z,98529.62
2018-07-10T22:27:41.738Z,98526.81
2018-07-10T22:30:21.691Z,98538.59
2018-07-10T22:33:04.424Z,98534.88
2018-07-10T22:35:35.369Z,98525.69
2018-07-10T22:38:07.170Z,98537.14
2018-07-10T22:40:37.877Z,98528.65
2018-07-10T22:43:08.525Z,98526.27
2018-07-10T22:45:39.748Z,98525.34
2018-07-10T22:48:11.052Z,98532.28
2018-07-10T22:50:41.405Z,98532.16
2018-07-10T22:53:12.165Z,98536.06
2018-07-10T22:55:42.926Z,98534.20
2018-07-10T22:58:13.949Z,98523.86
2018-07-10T23:00:44.790Z,98534.90
2018-07-10T23:03:22.455Z,98530.10
2018-07-10T23:05:54.046Z,98527.16
2018-07-10T23:08:31.701Z,98533.48
2018-07-10T23:11:04.761Z,98538.20
2018-07-10T23:13:42.516Z,98538.09
2018-07-10T23:16:13.550Z,98535.67
2018-07-10T23:18:45.821Z,98530.82
2018-07-10T23:21:18.356Z,98528.53
2018-07-10T23:23:50.508Z,98534.62
2018-07-10T23:26:21.763Z,98532.93
2018-07-10T23:28:55.093Z,98535.50
2018-07-10T23:31:30.244Z,98536.44
2018-07-10T23:34:17.951Z,98529.41
2018-07-10T23:37:01.703Z,98534.23
2018-07-10T23:39:49.091Z,98535.75
2018-07-10T23:42:37.626Z,98534.05
2018-07-10T23:45:20.541Z,98530.95
2018-07-10T23:47:55.198Z,98528.35
2018-07-10T23:50:31.009Z,98527.66
2018-07-10T23:54:08.891Z,98525.54
2018-07-10T23:56:39.172Z,98527.31
2018-07-10T23:59:09.956Z,98528.06
